createdAt,value
2019-01-19T00:02:15.563Z,7.43
2019-01-19T00:05:23.630Z,7.78
2019-01-19T00:08:31.679Z,6.97
2019-01-19T00:11:39.722Z,6.60
2019-01-19T00:14:31.093Z,7.55
2019-01-19T00:17:39.131Z,7.97
2019-01-19T00:20:48.085Z,8.50
2019-01-19T00:23:42.163Z,7.47
2019-01-19T00:26:50.368Z,7.03
2019-01-19T00:30:00.554Z,6.80
2019-01-19T00:33:08.738Z,7.67
2019-01-19T00:36:02.253Z,7.47
2019-01-19T00:39:10.324Z,8.07
2019-01-19T00:42:18.426Z,6.90
2019-01-19T00:45:26.474Z,7.43
2019-01-19T00:48:34.764Z,7.92
2019-01-19T00:51:42.836Z,7.33
2019-01-19T00:54:16.521Z,7.03
2019-01-19T00:56:56.689Z,6.30
2019-01-19T00:59:30.542Z,6.57
2019-01-19T01:02:38.587Z,8.33
2019-01-19T01:05:46.669Z,7.53
2019-01-19T01:08:54.684Z,7.10
2019-01-19T01:12:02.895Z,7.70
2019-01-19T01:15:10.935Z,7.17
2019-01-19T01:18:21.503Z,6.67
2019-01-19T01:21:29.555Z,8.87
2019-01-19T01:24:37.886Z,8.63
2019-01-19T01:27:45.934Z,6.53
2019-01-19T01:30:42.161Z,6.67
2019-01-19T01:33:37.179Z,7.30
2019-01-19T01:36:45.231Z,7.35
2019-01-19T01:39:53.279Z,8.10
2019-01-19T01:42:53.903Z,7.67
2019-01-19T01:46:03.532Z,7.60
2019-01-19T01:49:11.584Z,6.73
2019-01-19T01:52:19.642Z,6.27
2019-01-19T01:55:03.035Z,6.70
2019-01-19T01:57:56.880Z,6.45
2019-01-19T02:01:05.031Z,7.43
2019-01-19T02:04:13.125Z,7.58
2019-01-19T02:07:21.159Z,6.15
2019-01-19T02:10:14.050Z,5.80
2019-01-19T02:13:06.311Z,6.20
2019-01-19T02:16:14.521Z,5.33
2019-01-19T02:19:22.626Z,6.10
2019-01-19T02:22:30.651Z,6.90
2019-01-19T02:25:25.172Z,5.63
2019-01-19T02:28:27.430Z,5.12
2019-01-19T02:31:35.490Z,5.22
2019-01-19T02:34:20.005Z,6.00
2019-01-19T02:37:28.077Z,5.13
2019-01-19T02:40:36.448Z,5.47
2019-01-19T02:43:44.487Z,4.95
2019-01-19T02:46:52.539Z,4.90
2019-01-19T02:50:01.826Z,5.00
2019-01-19T02:53:09.986Z,5.33
2019-01-19T02:56:03.817Z,5.20
2019-01-19T02:59:12.083Z,4.60
2019-01-19T03:02:20.165Z,4.90
2019-01-19T03:05:28.273Z,5.00
2019-01-19T03:08:36.475Z,4.03
2019-01-19T03:11:28.638Z,5.77
2019-01-19T03:14:36.707Z,5.17
2019-01-19T03:17:44.803Z,5.10
2019-01-19T03:20:44.842Z,4.67
2019-01-19T03:23:52.893Z,4.77
2019-01-19T03:26:44.616Z,6.17
2019-01-19T03:29:52.648Z,5.07
2019-01-19T03:32:45.043Z,4.30
2019-01-19T03:35:53.193Z,5.10
2019-01-19T03:42:29.952Z,3.17
2019-01-19T03:45:38.055Z,4.23
2019-01-19T03:48:31.709Z,4.40
2019-01-19T03:51:23.226Z,3.20
2019-01-19T03:54:32.607Z,4.17
2019-01-19T03:57:40.798Z,3.84
2019-01-19T04:00:36.736Z,3.63
2019-01-19T04:03:44.808Z,3.65
2019-01-19T04:06:53.163Z,5.20
2019-01-19T04:10:01.320Z,3.60
2019-01-19T04:13:09.409Z,3.30
2019-01-19T04:16:17.455Z,3.43
2019-01-19T04:18:56.690Z,4.90
2019-01-19T04:22:04.741Z,3.70
2019-01-19T04:24:58.265Z,3.62
2019-01-19T04:27:27.783Z,3.27
2019-01-19T04:29:57.259Z,3.33
2019-01-19T04:32:26.771Z,3.47
2019-01-19T04:34:56.323Z,4.53
2019-01-19T04:37:25.884Z,2.90
2019-01-19T04:39:55.748Z,4.17
2019-01-19T04:42:25.499Z,3.87
2019-01-19T04:44:55.068Z,3.60
2019-01-19T04:47:24.623Z,3.60
2019-01-19T04:49:54.180Z,4.13
2019-01-19T04:52:23.764Z,3.60
2019-01-19T04:54:53.303Z,3.77
2019-01-19T04:57:22.895Z,3.03
2019-01-19T04:59:52.445Z,4.10
2019-01-19T05:02:21.968Z,3.27
2019-01-19T05:04:52.089Z,3.65
2019-01-19T05:07:21.777Z,4.03
2019-01-19T05:09:51.702Z,3.15
2019-01-19T05:12:21.913Z,4.92
2019-01-19T05:14:51.761Z,4.20
2019-01-19T05:17:22.057Z,3.87
2019-01-19T05:19:51.679Z,3.90
2019-01-19T05:22:21.831Z,3.60
2019-01-19T05:24:51.939Z,4.00
2019-01-19T05:27:21.802Z,2.70
2019-01-19T05:29:51.776Z,2.90
2019-01-19T05:32:22.259Z,4.05
2019-01-19T05:34:51.915Z,3.00
2019-01-19T05:37:21.878Z,3.75
2019-01-19T05:39:51.797Z,3.90
2019-01-19T05:42:21.825Z,3.20
2019-01-19T05:44:51.891Z,4.83
2019-01-19T05:47:21.857Z,3.75
2019-01-19T05:49:52.004Z,4.03
2019-01-19T05:52:23.241Z,4.23
2019-01-19T05:54:52.737Z,3.67
2019-01-19T05:57:22.309Z,4.43
2019-01-19T05:59:52.083Z,3.37
2019-01-19T06:05:02.444Z,3.70
2019-01-19T06:07:31.997Z,3.60
2019-01-19T06:10:01.918Z,2.67
2019-01-19T06:12:31.470Z,3.63
2019-01-19T06:15:00.941Z,3.50
2019-01-19T06:17:30.454Z,2.93
2019-01-19T06:22:55.614Z,3.47
2019-01-19T06:25:25.192Z,4.10
2019-01-19T06:27:54.788Z,2.83
2019-01-19T06:30:24.679Z,3.90
2019-01-19T06:32:54.287Z,2.97
2019-01-19T06:35:23.819Z,3.00
2019-01-19T06:37:53.356Z,3.47
2019-01-19T06:40:22.971Z,3.70
2019-01-19T06:42:52.632Z,4.27
2019-01-19T06:45:42.774Z,3.20
2019-01-19T06:48:12.302Z,3.00
2019-01-19T06:50:41.838Z,3.97
2019-01-19T06:53:11.413Z,2.53
2019-01-19T06:55:40.924Z,3.57
2019-01-19T06:58:10.559Z,4.03
2019-01-19T07:00:40.058Z,3.30
2019-01-19T07:03:09.666Z,3.30
2019-01-19T07:05:39.300Z,3.47
2019-01-19T07:08:08.782Z,2.70
2019-01-19T07:10:38.318Z,3.17
2019-01-19T07:13:07.861Z,2.97
2019-01-19T07:15:56.721Z,2.93
2019-01-19T07:18:26.217Z,2.80
2019-01-19T07:20:55.754Z,3.20
2019-01-19T07:23:25.396Z,3.35
2019-01-19T07:25:54.927Z,3.00
2019-01-19T07:28:24.448Z,3.50
2019-01-19T07:30:53.982Z,3.23
2019-01-19T07:33:23.585Z,3.80
2019-01-19T07:35:53.122Z,3.60
2019-01-19T07:38:22.649Z,3.70
2019-01-19T07:40:52.586Z,3.72
2019-01-19T07:48:42.483Z,3.53
2019-01-19T07:51:12.045Z,3.13
2019-01-19T07:53:41.580Z,2.77
2019-01-19T07:56:11.121Z,3.30
2019-01-19T07:58:40.605Z,1.90
2019-01-19T08:01:10.154Z,2.87
2019-01-19T08:03:39.688Z,3.10
2019-01-19T08:06:09.243Z,2.40
2019-01-19T08:08:38.832Z,3.40
2019-01-19T08:11:08.405Z,4.20
2019-01-19T08:13:37.934Z,3.80
2019-01-19T08:16:07.676Z,3.98
2019-01-19T08:18:37.256Z,3.40
2019-01-19T08:21:06.808Z,4.00
2019-01-19T08:23:36.357Z,3.50
2019-01-19T08:26:05.862Z,3.70
2019-01-19T08:28:35.669Z,3.70
2019-01-19T08:31:07.067Z,2.93
2019-01-19T08:33:36.593Z,3.60
2019-01-19T08:36:06.357Z,4.30
2019-01-19T08:38:35.900Z,3.87
2019-01-19T08:41:05.515Z,4.20
2019-01-19T08:43:54.112Z,4.17
2019-01-19T08:46:23.678Z,4.58
2019-01-19T08:48:53.264Z,4.72
2019-01-19T08:51:22.859Z,3.67
2019-01-19T08:53:52.406Z,3.70
2019-01-19T08:56:21.985Z,4.40
2019-01-19T08:58:51.589Z,4.40
2019-01-19T09:01:21.164Z,3.80
2019-01-19T09:03:50.748Z,4.00
2019-01-19T09:06:20.336Z,3.93
2019-01-19T09:08:50.292Z,4.00
2019-01-19T09:11:20.353Z,4.25
2019-01-19T09:13:50.453Z,5.08
2019-01-19T09:16:21.726Z,5.30
2019-01-19T09:18:51.242Z,4.10
2019-01-19T09:21:20.725Z,4.00
2019-01-19T09:24:09.588Z,4.80
2019-01-19T09:26:39.171Z,5.07
2019-01-19T09:29:08.730Z,4.80
2019-01-19T09:31:38.242Z,4.97
2019-01-19T09:34:07.735Z,4.53
2019-01-19T09:36:37.226Z,4.20
2019-01-19T09:39:10.511Z,4.83
2019-01-19T09:41:40.076Z,4.77
2019-01-19T09:44:09.747Z,4.90
2019-01-19T09:46:39.283Z,4.37
2019-01-19T09:49:08.757Z,4.30
2019-01-19T09:51:38.334Z,4.93
2019-01-19T09:54:47.715Z,4.40
2019-01-19T09:57:17.203Z,4.90
2019-01-19T10:02:28.300Z,4.62
2019-01-19T10:04:57.803Z,4.42
2019-01-19T10:07:27.376Z,4.13
2019-01-19T10:09:56.895Z,3.73
2019-01-19T10:12:26.373Z,4.10
2019-01-19T10:14:55.910Z,4.57
2019-01-19T10:17:25.457Z,5.00
2019-01-19T10:19:54.970Z,4.47
2019-01-19T10:22:25.392Z,3.90
2019-01-19T10:24:55.303Z,4.70
2019-01-19T10:27:25.225Z,4.33
2019-01-19T10:29:55.282Z,4.72
2019-01-19T10:32:25.346Z,3.62
2019-01-19T10:34:55.419Z,4.20
2019-01-19T10:37:25.292Z,4.10
2019-01-19T10:40:07.386Z,3.75
2019-01-19T10:42:36.867Z,3.87
2019-01-19T10:45:08.438Z,3.50
2019-01-19T10:47:38.062Z,4.20
2019-01-19T10:50:09.562Z,4.10
2019-01-19T10:52:39.051Z,3.77
2019-01-19T10:55:09.360Z,3.10
2019-01-19T10:57:38.917Z,2.97
2019-01-19T11:03:06.667Z,3.40
2019-01-19T11:05:36.192Z,3.57
2019-01-19T11:11:02.567Z,3.47
2019-01-19T11:13:32.017Z,1.72
2019-01-19T11:18:42.909Z,2.60
2019-01-19T11:21:12.486Z,3.27
2019-01-19T11:23:41.951Z,2.40
2019-01-19T11:26:11.516Z,3.57
2019-01-19T11:28:41.016Z,3.08
2019-01-19T11:31:10.510Z,2.83
2019-01-19T11:33:39.996Z,3.02
2019-01-19T11:36:09.514Z,2.97
2019-01-19T11:38:39.029Z,3.43
2019-01-19T11:41:08.554Z,2.90
2019-01-19T11:43:38.025Z,3.40
2019-01-19T11:46:07.537Z,2.57
2019-01-19T11:51:17.921Z,2.97
2019-01-19T11:53:47.632Z,3.40
2019-01-19T11:56:17.210Z,3.20
2019-01-19T11:58:46.690Z,3.10
2019-01-19T12:01:16.174Z,3.97
2019-01-19T12:06:34.180Z,4.07
2019-01-19T12:12:05.471Z,3.97
2019-01-19T12:14:34.977Z,3.70
2019-01-19T12:17:04.569Z,3.30
2019-01-19T12:19:34.049Z,3.73
2019-01-19T12:22:16.072Z,2.93
2019-01-19T12:24:45.599Z,2.97
2019-01-19T12:27:15.112Z,3.27
2019-01-19T12:29:44.593Z,3.67
2019-01-19T12:32:14.097Z,3.63
2019-01-19T12:34:43.604Z,3.35
2019-01-19T12:37:13.085Z,3.10
2019-01-19T12:39:42.548Z,2.83
2019-01-19T12:42:12.027Z,2.67
2019-01-19T12:44:41.517Z,3.27
2019-01-19T12:47:30.054Z,4.00
2019-01-19T12:49:59.839Z,3.70
2019-01-19T12:52:34.996Z,3.27
2019-01-19T12:55:04.601Z,4.30
2019-01-19T12:57:34.163Z,2.90
2019-01-19T13:00:03.829Z,3.50
2019-01-19T13:02:33.326Z,4.17
2019-01-19T13:05:02.957Z,3.02
2019-01-19T13:07:32.473Z,3.23
2019-01-19T13:10:25.696Z,2.80
2019-01-19T13:13:16.007Z,3.97
2019-01-19T13:16:24.054Z,3.20
2019-01-19T13:19:24.467Z,3.40
2019-01-19T13:22:32.547Z,2.92
2019-01-19T13:25:25.004Z,3.73
2019-01-19T13:28:18.464Z,3.43
2019-01-19T13:31:26.593Z,3.45
2019-01-19T13:34:08.903Z,3.80
2019-01-19T13:37:16.953Z,3.67
2019-01-19T13:40:24.980Z,4.10
2019-01-19T13:43:33.059Z,4.10
2019-01-19T13:46:26.393Z,3.20
2019-01-19T13:49:34.451Z,3.97
2019-01-19T13:52:42.534Z,3.93
2019-01-19T13:55:50.537Z,3.97
2019-01-19T13:58:58.585Z,3.30
2019-01-19T14:02:06.701Z,2.98
2019-01-19T14:04:59.982Z,3.17
2019-01-19T14:07:41.882Z,3.77
2019-01-19T14:10:49.936Z,3.30
2019-01-19T14:13:57.934Z,3.50
2019-01-19T14:17:05.980Z,3.60
2019-01-19T14:19:57.454Z,4.13
2019-01-19T14:23:05.506Z,4.30
2019-01-19T14:26:13.629Z,3.25
2019-01-19T14:29:21.649Z,3.93
2019-01-19T14:32:14.812Z,4.67
2019-01-19T14:35:10.516Z,3.20
2019-01-19T14:38:18.572Z,4.27
2019-01-19T14:41:26.636Z,3.75
2019-01-19T14:44:19.681Z,4.42
2019-01-19T14:47:20.514Z,3.52
2019-01-19T14:50:18.811Z,4.45
2019-01-19T14:53:26.843Z,4.87
2019-01-19T14:56:35.021Z,3.63
2019-01-19T14:59:26.941Z,4.20
2019-01-19T15:02:20.261Z,3.70
2019-01-19T15:04:57.477Z,3.57
2019-01-19T15:08:05.513Z,4.70
2019-01-19T15:11:13.567Z,4.65
2019-01-19T15:14:09.631Z,4.80
2019-01-19T15:17:17.695Z,3.87
2019-01-19T15:20:15.752Z,3.80
2019-01-19T15:23:23.994Z,4.00
2019-01-19T15:26:30.222Z,4.60
2019-01-19T15:29:38.282Z,4.03
2019-01-19T15:32:33.513Z,3.03
2019-01-19T15:35:41.570Z,3.70
2019-01-19T15:38:49.613Z,3.10
2019-01-19T15:41:57.664Z,3.80
2019-01-19T15:45:06.414Z,3.80
2019-01-19T15:48:00.033Z,3.33
2019-01-19T15:51:08.040Z,3.17
2019-01-19T15:54:04.428Z,3.60
2019-01-19T15:57:12.466Z,3.27
2019-01-19T16:00:20.474Z,4.28
2019-01-19T16:03:15.247Z,3.90
2019-01-19T16:06:23.463Z,4.78
2019-01-19T16:09:18.358Z,3.90
2019-01-19T16:12:32.367Z,3.00
2019-01-19T16:15:40.451Z,4.43
2019-01-19T16:18:48.504Z,4.30
2019-01-19T16:21:56.564Z,4.22
2019-01-19T16:25:04.633Z,3.70
2019-01-19T16:28:12.725Z,4.73
2019-01-19T16:31:20.772Z,4.13
2019-01-19T16:34:15.062Z,4.63
2019-01-19T16:37:23.286Z,4.53
2019-01-19T16:40:31.353Z,3.57
2019-01-19T16:43:22.588Z,4.67
2019-01-19T16:46:16.112Z,4.90
2019-01-19T16:49:24.236Z,5.50
2019-01-19T16:52:17.717Z,4.57
2019-01-19T16:55:31.034Z,3.80
2019-01-19T16:58:39.106Z,5.27
2019-01-19T17:01:47.135Z,4.80
2019-01-19T17:04:55.265Z,5.20
2019-01-19T17:08:03.380Z,6.10
2019-01-19T17:11:11.470Z,10.13
2019-01-19T17:14:19.578Z,6.80
2019-01-19T17:17:27.633Z,6.17
2019-01-19T17:20:19.209Z,6.10
2019-01-19T17:23:27.335Z,4.27
2019-01-19T17:26:35.403Z,5.50
2019-01-19T17:29:43.469Z,4.40
2019-01-19T17:32:36.441Z,5.20
2019-01-19T17:35:31.497Z,4.80
2019-01-19T17:41:30.291Z,4.53
2019-01-19T17:44:38.329Z,5.77
2019-01-19T17:47:30.639Z,4.60
2019-01-19T17:50:38.702Z,5.40
2019-01-19T17:53:46.984Z,4.43
2019-01-19T17:56:38.198Z,5.57
2019-01-19T17:59:35.299Z,9.50
2019-01-19T18:02:43.351Z,6.90
2019-01-19T18:05:51.416Z,7.40
2019-01-19T18:08:59.480Z,6.93
2019-01-19T18:12:07.533Z,7.50
2019-01-19T18:15:15.912Z,7.65
2019-01-19T18:18:23.972Z,7.40
2019-01-19T18:21:25.954Z,6.67
2019-01-19T18:24:53.168Z,7.42
2019-01-19T18:28:01.831Z,8.28
2019-01-19T18:31:10.035Z,7.70
2019-01-19T18:34:02.858Z,7.00
2019-01-19T18:36:54.778Z,7.67
2019-01-19T18:39:54.607Z,7.80
2019-01-19T18:43:00.940Z,6.83
2019-01-19T18:46:09.310Z,7.83
2019-01-19T18:49:17.348Z,7.10
2019-01-19T18:52:03.465Z,7.37
2019-01-19T18:55:11.581Z,7.65
2019-01-19T18:58:10.436Z,9.00
2019-01-19T19:01:06.200Z,8.70
2019-01-19T19:04:00.517Z,8.20
2019-01-19T19:07:02.111Z,8.25
2019-01-19T19:09:49.342Z,8.20
2019-01-19T19:12:47.545Z,7.67
2019-01-19T19:15:57.497Z,8.77
2019-01-19T19:19:05.542Z,8.03
2019-01-19T19:22:13.599Z,8.25
2019-01-19T19:25:08.646Z,8.43
2019-01-19T19:28:16.720Z,7.77
2019-01-19T19:31:24.869Z,7.73
2019-01-19T19:34:32.937Z,8.30
2019-01-19T19:37:27.740Z,8.03
2019-01-19T19:40:35.774Z,8.13
2019-01-19T19:43:44.150Z,7.27
2019-01-19T19:46:52.957Z,7.97
2019-01-19T19:50:01.000Z,8.37
2019-01-19T19:52:31.636Z,8.20
2019-01-19T19:54:59.910Z,7.70
2019-01-19T19:57:35.884Z,12.90
2019-01-19T20:00:07.612Z,9.93
2019-01-19T20:02:37.520Z,12.50
2019-01-19T20:08:30.275Z,10.23
2019-01-19T20:10:59.839Z,12.27
2019-01-19T20:16:16.592Z,11.07
2019-01-19T20:18:46.092Z,14.57
2019-01-19T20:21:15.628Z,12.07
2019-01-19T20:23:45.194Z,16.87
2019-01-19T20:26:14.702Z,14.63
2019-01-19T20:28:44.195Z,12.50
2019-01-19T20:31:13.712Z,14.93
2019-01-19T20:33:43.290Z,11.70
2019-01-19T20:36:14.554Z,14.07
2019-01-19T20:38:44.144Z,13.15
2019-01-19T20:41:13.772Z,10.82
2019-01-19T20:43:43.380Z,11.20
2019-01-19T20:46:13.011Z,9.45
2019-01-19T20:48:42.707Z,10.67
2019-01-19T20:54:01.446Z,15.83
2019-01-19T20:56:31.308Z,13.93
2019-01-19T21:01:55.416Z,17.10
2019-01-19T21:04:26.628Z,12.80
2019-01-19T21:06:56.164Z,11.33
2019-01-19T21:09:25.656Z,10.37
2019-01-19T21:11:55.166Z,9.27
2019-01-19T21:14:24.679Z,9.53
2019-01-19T21:16:54.264Z,11.67
2019-01-19T21:19:43.216Z,9.03
2019-01-19T21:22:12.775Z,9.33
2019-01-19T21:24:42.342Z,9.43
2019-01-19T21:27:11.882Z,9.28
2019-01-19T21:29:41.382Z,9.33
2019-01-19T21:32:10.893Z,8.93
2019-01-19T21:34:40.454Z,8.90
2019-01-19T21:37:10.154Z,8.90
2019-01-19T21:39:39.623Z,8.78
2019-01-19T21:42:09.121Z,10.37
2019-01-19T21:44:38.619Z,10.65
2019-01-19T21:47:08.185Z,8.97
2019-01-19T21:50:17.605Z,10.75
2019-01-19T21:52:47.081Z,9.67
2019-01-19T21:55:16.621Z,9.58
2019-01-19T21:57:46.180Z,10.70
2019-01-19T22:00:17.211Z,11.65
2019-01-19T22:02:46.695Z,9.75
2019-01-19T22:05:16.255Z,10.07
2019-01-19T22:07:45.781Z,10.58
2019-01-19T22:10:17.107Z,9.33
2019-01-19T22:12:47.604Z,9.55
2019-01-19T22:15:18.436Z,9.73
2019-01-19T22:17:48.093Z,9.87
2019-01-19T22:20:19.348Z,9.20
2019-01-19T22:25:42.818Z,9.57
2019-01-19T22:28:12.330Z,8.90
2019-01-19T22:30:41.833Z,12.70
2019-01-19T22:33:11.420Z,10.47
2019-01-19T22:35:40.956Z,10.03
2019-01-19T22:38:10.563Z,9.78
2019-01-19T22:40:40.222Z,9.15
2019-01-19T22:43:12.610Z,12.00
2019-01-19T22:45:42.203Z,11.00
2019-01-19T22:48:11.764Z,12.50
2019-01-19T22:50:41.381Z,13.13
2019-01-19T22:53:29.959Z,10.93
2019-01-19T22:55:59.593Z,11.10
2019-01-19T22:58:29.189Z,12.27
2019-01-19T23:01:20.663Z,12.80
2019-01-19T23:03:50.294Z,13.63
2019-01-19T23:06:19.849Z,12.73
2019-01-19T23:08:49.389Z,13.13
2019-01-19T23:11:19.016Z,12.15
2019-01-19T23:13:48.564Z,13.68
2019-01-19T23:16:18.140Z,11.73
2019-01-19T23:18:47.753Z,11.97
2019-01-19T23:21:17.274Z,11.33
2019-01-19T23:23:46.799Z,9.70
2019-01-19T23:26:16.487Z,9.33
2019-01-19T23:28:46.029Z,13.43
2019-01-19T23:31:15.592Z,11.30
2019-01-19T23:33:45.152Z,11.23
2019-01-19T23:36:14.767Z,11.80
2019-01-19T23:38:44.362Z,9.87
2019-01-19T23:41:13.866Z,8.87
2019-01-19T23:43:45.044Z,9.50
2019-01-19T23:46:14.612Z,9.37
2019-01-19T23:48:44.141Z,11.00
2019-01-19T23:51:13.725Z,10.15
2019-01-19T23:53:43.585Z,10.20
2019-01-19T23:56:13.132Z,11.67
2019-01-19T23:58:42.780Z,9.08
